Time;durP1;ratioP1;P1;durP2;ratioP2;P2;SDS_P1;SDS_P2;PMS_P1;PMS_P2;Temp;Humidity;BMP_temperature;BMP_pressure;BME280_temperature;BME280_humidity;BME280_pressure;Samples;Min_cycle;Max_cycle;Signal;HPM_P1;HPM_P2
2022/08/24 00:00:39;;;;;;;16.23;13.63;;;21.00;99.90;;;;;;5038953;28;20455;-42
2022/08/24 00:03:06;;;;;;;16.58;13.93;;;20.90;99.90;;;;;;5038838;28;20038;-45
2022/08/24 00:05:31;;;;;;;14.57;13.07;;;20.90;99.90;;;;;;5033125;28;20053;-40
2022/08/24 00:07:57;;;;;;;16.35;14.02;;;20.90;99.90;;;;;;5037071;28;20044;-43
2022/08/24 00:10:23;;;;;;;17.50;13.55;;;20.90;99.90;;;;;;5036174;28;20043;-41
2022/08/24 00:12:49;;;;;;;17.70;13.48;;;20.80;99.90;;;;;;5042339;28;20044;-41
2022/08/24 00:15:16;;;;;;;17.52;13.20;;;20.90;99.90;;;;;;5049613;28;20073;-51
2022/08/24 00:17:43;;;;;;;17.17;12.77;;;20.80;99.90;;;;;;5034810;28;20034;-42
2022/08/24 00:20:10;;;;;;;15.25;13.20;;;20.80;99.90;;;;;;5036864;28;20088;-40
2022/08/24 00:22:37;;;;;;;16.30;13.25;;;20.70;99.90;;;;;;5040056;28;20517;-43
2022/08/24 00:25:04;;;;;;;15.55;13.45;;;20.70;99.90;;;;;;5041574;28;20120;-39
2022/08/24 00:27:29;;;;;;;18.25;14.05;;;20.70;99.90;;;;;;5043161;28;20044;-40
2022/08/24 00:29:55;;;;;;;19.02;13.50;;;20.70;99.90;;;;;;5044437;28;20489;-39
2022/08/24 00:32:21;;;;;;;15.35;13.73;;;20.70;99.90;;;;;;5039287;28;20045;-47
2022/08/24 00:34:47;;;;;;;17.13;13.20;;;20.60;99.90;;;;;;5042328;28;20042;-38
2022/08/24 00:37:12;;;;;;;17.35;15.05;;;20.60;99.90;;;;;;5039050;28;20080;-38
2022/08/24 00:39:38;;;;;;;16.80;14.20;;;20.60;99.90;;;;;;5041757;28;20033;-40
2022/08/24 00:42:04;;;;;;;15.27;12.57;;;20.60;99.90;;;;;;5041694;28;20099;-42
2022/08/24 00:44:30;;;;;;;13.75;11.13;;;20.50;99.90;;;;;;5046226;28;20122;-42
2022/08/24 00:47:04;;;;;;;14.10;12.18;;;20.50;99.90;;;;;;5038315;28;20036;-43
2022/08/24 00:49:44;;;;;;;12.35;11.05;;;20.40;99.90;;;;;;5042052;28;20029;-41
2022/08/24 00:52:24;;;;;;;12.98;10.88;;;20.30;99.90;;;;;;5038163;28;20068;-37
2022/08/24 00:54:59;;;;;;;14.18;12.68;;;20.20;99.90;;;;;;5044787;28;20532;-39
2022/08/24 00:57:30;;;;;;;16.20;11.88;;;20.10;99.90;;;;;;5041661;28;20045;-42
2022/08/24 01:00:04;;;;;;;13.65;12.02;;;20.10;99.90;;;;;;5045787;28;20064;-43
2022/08/24 01:02:33;;;;;;;15.68;13.27;;;20.10;99.90;;;;;;5045145;28;20562;-42
2022/08/24 01:05:04;;;;;;;16.25;13.80;;;20.20;99.90;;;;;;5046694;28;20451;-38
2022/08/24 01:07:33;;;;;;;16.65;14.10;;;20.20;99.90;;;;;;5038142;28;20025;-38
2022/08/24 01:10:03;;;;;;;15.13;12.85;;;20.10;99.90;;;;;;5038822;28;20025;-53
2022/08/24 01:12:30;;;;;;;14.43;12.35;;;20.20;99.90;;;;;;5043606;28;20041;-40
2022/08/24 01:14:59;;;;;;;13.05;11.18;;;20.20;99.90;;;;;;5035884;28;20037;-42
2022/08/24 01:20:11;;;;;;;12.43;11.13;;;20.10;99.90;;;;;;5044561;28;20064;-41
2022/08/24 01:23:09;;;;;;;15.63;11.82;;;20.10;99.90;;;;;;5037986;28;20048;-41
2022/08/24 01:25:37;;;;;;;10.40;9.30;;;20.10;99.90;;;;;;5044856;28;20049;-41
2022/08/24 01:28:07;;;;;;;15.20;11.60;;;20.00;99.90;;;;;;5047402;28;20115;-38
2022/08/24 01:30:34;;;;;;;15.35;13.75;;;20.00;99.90;;;;;;5043053;28;20128;-38
2022/08/24 01:33:02;;;;;;;17.83;14.30;;;20.00;99.90;;;;;;5043836;28;20040;-43
2022/08/24 01:35:30;;;;;;;14.98;12.50;;;19.90;99.90;;;;;;5041051;28;20501;-41
2022/08/24 01:37:59;;;;;;;15.32;11.50;;;19.90;99.90;;;;;;5040306;28;20060;-45
2022/08/24 01:40:37;;;;;;;13.52;12.13;;;19.90;99.90;;;;;;5039049;28;20057;-41
2022/08/24 01:43:06;;;;;;;12.70;11.35;;;19.90;99.90;;;;;;5039497;28;20562;-40
2022/08/24 01:45:32;;;;;;;12.52;11.23;;;19.80;99.90;;;;;;5041942;28;20160;-43
2022/08/24 01:47:58;;;;;;;15.52;11.48;;;19.80;99.90;;;;;;5046022;28;20036;-42
2022/08/24 01:50:25;;;;;;;15.57;13.98;;;19.70;99.90;;;;;;5036826;28;20033;-39
2022/08/24 01:52:51;;;;;;;14.10;11.85;;;19.70;99.90;;;;;;5042274;28;20429;-41
2022/08/24 01:55:18;;;;;;;15.00;13.27;;;19.70;99.90;;;;;;5037552;28;20046;-38
2022/08/24 01:57:43;;;;;;;18.30;13.45;;;19.70;99.90;;;;;;5043772;28;20410;-41
2022/08/24 02:00:14;;;;;;;17.48;14.50;;;19.70;99.90;;;;;;5038741;28;20159;-40
2022/08/24 02:02:42;;;;;;;19.45;15.02;;;19.70;99.90;;;;;;5039915;28;20041;-42
2022/08/24 02:05:10;;;;;;;16.95;14.30;;;19.70;99.90;;;;;;5042772;28;20540;-40
2022/08/24 02:07:37;;;;;;;15.18;12.98;;;19.70;99.90;;;;;;5039801;28;20068;-42
2022/08/24 02:10:05;;;;;;;15.57;13.07;;;19.70;99.90;;;;;;5039864;28;20547;-41
2022/08/24 02:12:32;;;;;;;15.27;13.68;;;19.70;99.90;;;;;;5041592;28;20498;-43
2022/08/24 02:14:59;;;;;;;14.95;13.35;;;19.70;99.90;;;;;;5042470;28;20043;-38
2022/08/24 02:17:25;;;;;;;16.05;13.20;;;19.70;99.90;;;;;;5044986;28;20112;-40
2022/08/24 02:19:50;;;;;;;15.25;13.68;;;19.60;99.90;;;;;;5041361;28;20070;-41
2022/08/24 02:22:16;;;;;;;18.58;14.63;;;19.60;99.90;;;;;;5044023;28;20051;-40
2022/08/24 02:24:42;;;;;;;15.23;12.73;;;19.60;99.90;;;;;;5036576;28;20041;-42
2022/08/24 02:27:07;;;;;;;16.73;12.88;;;19.60;99.90;;;;;;5043184;28;20695;-38
2022/08/24 02:29:33;;;;;;;12.50;11.20;;;19.60;99.90;;;;;;5035214;28;20036;-39
2022/08/24 02:31:59;;;;;;;15.52;12.82;;;19.60;99.90;;;;;;5039875;28;20128;-40
2022/08/24 02:34:24;;;;;;;12.55;11.23;;;19.50;99.90;;;;;;5035324;28;20041;-41
2022/08/24 02:36:52;;;;;;;15.18;12.20;;;19.50;99.90;;;;;;5038563;28;20033;-43
2022/08/24 02:39:18;;;;;;;15.82;13.27;;;19.50;99.90;;;;;;5041400;28;20516;-42
2022/08/24 02:41:43;;;;;;;15.15;13.55;;;19.40;99.90;;;;;;5039052;28;20175;-41
2022/08/24 02:44:09;;;;;;;16.05;13.40;;;19.40;99.90;;;;;;5043017;28;20572;-43
2022/08/24 02:46:35;;;;;;;14.80;13.23;;;19.40;99.90;;;;;;5043821;28;20186;-41
2022/08/24 02:49:01;;;;;;;14.70;11.10;;;19.40;99.90;;;;;;5043261;28;20056;-38
2022/08/24 02:51:29;;;;;;;12.70;10.80;;;19.40;99.90;;;;;;5039451;28;20072;-41
2022/08/24 02:53:57;;;;;;;11.63;10.52;;;19.40;99.90;;;;;;5037972;28;20044;-40
2022/08/24 02:56:24;;;;;;;12.00;10.70;;;19.40;99.90;;;;;;5033894;28;20045;-40
2022/08/24 02:58:50;;;;;;;14.40;12.15;;;19.40;99.90;;;;;;5035731;28;20068;-39
2022/08/24 03:01:16;;;;;;;13.02;11.68;;;19.40;99.90;;;;;;5039513;28;20178;-41
2022/08/24 03:03:42;;;;;;;15.27;12.15;;;19.40;99.90;;;;;;5044333;28;20041;-43
2022/08/24 03:06:09;;;;;;;14.90;12.73;;;19.40;99.90;;;;;;5035632;28;20076;-40
2022/08/24 03:08:35;;;;;;;13.05;11.40;;;19.40;99.90;;;;;;5036472;28;20033;-43
2022/08/24 03:11:01;;;;;;;10.45;9.35;;;19.40;99.90;;;;;;5040520;28;20036;-36
2022/08/24 03:13:29;;;;;;;13.77;10.93;;;19.40;99.90;;;;;;5032523;28;20037;-38
2022/08/24 03:15:56;;;;;;;9.07;8.18;;;19.40;99.90;;;;;;5038418;28;20032;-43
2022/08/24 03:18:24;;;;;;;13.25;11.85;;;19.30;99.90;;;;;;5034637;28;20498;-42
2022/08/24 03:20:51;;;;;;;19.13;15.75;;;19.30;99.90;;;;;;5036058;28;20059;-39
2022/08/24 03:23:17;;;;;;;12.18;10.93;;;19.30;99.90;;;;;;5040382;28;20093;-45
2022/08/24 03:25:43;;;;;;;12.18;10.88;;;19.20;99.90;;;;;;5036421;28;20132;-45
2022/08/24 03:28:10;;;;;;;13.65;11.45;;;19.20;99.90;;;;;;5040573;28;20037;-41
2022/08/24 03:30:38;;;;;;;13.30;11.90;;;19.20;99.90;;;;;;5038338;28;20040;-42
2022/08/24 03:33:04;;;;;;;15.77;14.15;;;19.10;99.90;;;;;;5040035;28;20658;-38
2022/08/24 03:35:30;;;;;;;13.60;12.20;;;19.10;99.90;;;;;;5036193;28;20082;-44
2022/08/24 03:37:55;;;;;;;14.15;12.75;;;19.00;99.90;;;;;;5038644;28;20033;-40
2022/08/24 03:40:22;;;;;;;12.73;10.95;;;19.00;99.90;;;;;;5037157;28;20099;-44
2022/08/24 03:42:49;;;;;;;13.52;11.73;;;19.10;99.90;;;;;;5034217;28;20033;-42
2022/08/24 03:45:14;;;;;;;11.00;9.85;;;19.00;99.90;;;;;;5032544;28;20049;-43
2022/08/24 03:47:40;;;;;;;12.02;10.82;;;19.00;99.90;;;;;;5039820;28;20029;-45
2022/08/24 03:50:08;;;;;;;11.05;9.90;;;18.90;99.90;;;;;;5050279;28;20029;-43
2022/08/24 03:52:34;;;;;;;13.80;12.32;;;19.00;99.90;;;;;;5038197;28;20045;-39
2022/08/24 03:55:04;;;;;;;14.88;12.77;;;18.90;99.90;;;;;;5043619;28;20057;-42
2022/08/24 03:57:31;;;;;;;16.38;14.40;;;19.00;99.90;;;;;;5042009;28;20040;-43
2022/08/24 03:59:56;;;;;;;18.38;16.48;;;19.00;99.90;;;;;;5043066;28;20080;-42
2022/08/24 04:02:23;;;;;;;16.55;14.85;;;18.90;99.90;;;;;;5038698;28;20041;-41
2022/08/24 04:04:49;;;;;;;16.05;14.35;;;18.90;99.90;;;;;;5041167;28;20041;-43
2022/08/24 04:07:14;;;;;;;17.52;15.23;;;18.90;99.90;;;;;;5041711;28;20041;-43
2022/08/24 04:09:40;;;;;;;16.85;13.48;;;18.90;99.90;;;;;;5043096;28;20406;-44
2022/08/24 04:12:06;;;;;;;18.88;16.17;;;18.90;99.90;;;;;;5039961;28;20055;-46
2022/08/24 04:14:33;;;;;;;19.73;17.02;;;18.90;99.90;;;;;;5041595;28;20044;-42
2022/08/24 04:16:59;;;;;;;17.67;14.50;;;18.90;99.90;;;;;;5044386;28;20044;-44
2022/08/24 04:19:26;;;;;;;12.40;11.10;;;18.90;99.90;;;;;;5038718;28;20061;-38
2022/08/24 04:21:52;;;;;;;15.32;13.65;;;18.90;99.90;;;;;;5038825;28;20051;-37
2022/08/24 04:24:19;;;;;;;17.90;15.85;;;18.90;99.90;;;;;;5041561;28;20107;-39
2022/08/24 04:26:45;;;;;;;14.32;12.65;;;18.80;99.90;;;;;;5041815;28;20064;-41
2022/08/24 04:29:13;;;;;;;15.07;13.48;;;18.90;99.90;;;;;;5041023;28;20037;-44
2022/08/24 04:31:40;;;;;;;16.58;13.63;;;18.80;99.90;;;;;;5043880;28;20474;-40
2022/08/24 04:34:06;;;;;;;14.65;13.15;;;18.80;99.90;;;;;;5037418;28;20044;-45
2022/08/24 04:36:32;;;;;;;15.40;13.80;;;18.80;99.90;;;;;;5038461;28;20045;-40
2022/08/24 04:38:59;;;;;;;14.90;12.98;;;18.80;99.90;;;;;;5039619;28;20051;-42
2022/08/24 04:41:25;;;;;;;13.55;12.15;;;18.80;99.90;;;;;;5039785;28;20055;-39
2022/08/24 04:43:51;;;;;;;10.27;9.15;;;18.70;99.90;;;;;;5033903;28;20568;-48
2022/08/24 04:46:19;;;;;;;10.75;8.93;;;18.70;99.90;;;;;;5038995;28;20128;-43
2022/08/24 04:48:46;;;;;;;12.32;9.25;;;18.70;99.90;;;;;;5040568;28;20051;-38
2022/08/24 04:51:14;;;;;;;8.10;7.30;;;18.60;99.90;;;;;;5037834;28;20068;-43
2022/08/24 04:53:41;;;;;;;11.18;10.00;;;18.50;99.90;;;;;;5039974;28;20121;-42
2022/08/24 04:56:14;;;;;;;11.00;9.90;;;18.50;99.90;;;;;;5044569;28;20401;-41
2022/08/24 04:58:39;;;;;;;10.45;9.40;;;18.40;99.90;;;;;;5039290;28;20397;-39
2022/08/24 05:01:11;;;;;;;11.57;10.38;;;18.40;99.90;;;;;;5040873;28;20034;-43
2022/08/24 05:03:37;;;;;;;21.63;10.60;;;18.40;99.90;;;;;;5037406;28;20043;-44
2022/08/24 05:06:04;;;;;;;11.38;10.00;;;18.40;99.90;;;;;;5042962;28;20386;-39
2022/08/24 05:08:30;;;;;;;15.38;9.25;;;18.40;99.90;;;;;;5041788;28;20114;-43
2022/08/24 05:10:56;;;;;;;9.05;8.07;;;18.40;99.90;;;;;;5040677;28;20037;-38
2022/08/24 05:13:22;;;;;;;9.98;8.65;;;18.40;99.90;;;;;;5035510;28;20149;-41
2022/08/24 05:15:48;;;;;;;9.43;8.52;;;18.40;99.90;;;;;;5040630;28;20469;-40
2022/08/24 05:18:15;;;;;;;8.77;7.97;;;18.40;99.90;;;;;;5038430;28;20132;-38
2022/08/24 05:20:44;;;;;;;8.75;7.85;;;18.40;99.90;;;;;;5038477;28;20122;-40
2022/08/24 05:23:10;;;;;;;9.70;8.70;;;18.50;99.90;;;;;;5040485;28;20056;-38
2022/08/24 05:25:36;;;;;;;9.50;7.63;;;18.50;99.90;;;;;;5039220;28;20147;-41
2022/08/24 05:28:02;;;;;;;9.00;7.97;;;18.60;99.90;;;;;;5042800;28;20123;-41
2022/08/24 05:30:27;;;;;;;9.90;8.90;;;18.70;99.90;;;;;;5040419;28;20478;-42
2022/08/24 05:32:53;;;;;;;9.95;8.95;;;18.80;99.90;;;;;;5035567;28;20454;-40
2022/08/24 05:35:19;;;;;;;10.45;9.35;;;18.80;99.90;;;;;;5041148;28;20569;-40
2022/08/24 05:37:44;;;;;;;13.00;10.40;;;18.80;99.90;;;;;;5048062;28;20136;-39
2022/08/24 05:40:13;;;;;;;11.32;10.05;;;18.90;99.90;;;;;;5045316;28;20036;-39
2022/08/24 05:42:39;;;;;;;13.93;11.68;;;19.00;99.90;;;;;;5038507;28;20041;-38
2022/08/24 05:45:05;;;;;;;13.55;12.15;;;19.10;99.90;;;;;;5039077;28;20041;-39
2022/08/24 05:47:33;;;;;;;14.43;12.82;;;19.10;99.90;;;;;;5041878;28;20041;-38
2022/08/24 05:49:59;;;;;;;11.93;10.02;;;19.20;99.90;;;;;;5041816;28;20063;-37
2022/08/24 05:52:25;;;;;;;14.73;12.32;;;19.30;99.90;;;;;;5039463;28;20059;-39
2022/08/24 05:54:53;;;;;;;16.27;13.43;;;19.40;99.90;;;;;;5039256;28;20055;-40
2022/08/24 05:57:20;;;;;;;16.42;13.13;;;19.40;99.90;;;;;;5039846;28;20072;-39
2022/08/24 05:59:46;;;;;;;15.23;13.45;;;19.50;99.90;;;;;;5038238;28;20040;-42
2022/08/24 06:02:11;;;;;;;16.95;13.75;;;19.60;99.90;;;;;;5036786;28;20410;-41
2022/08/24 06:04:37;;;;;;;17.33;13.50;;;19.70;99.90;;;;;;5044318;28;20095;-41
2022/08/24 06:07:10;;;;;;;17.88;14.77;;;19.70;99.90;;;;;;5042600;28;20057;-38
2022/08/24 06:09:39;;;;;;;21.95;17.48;;;19.80;99.90;;;;;;5035053;28;20048;-41
2022/08/24 06:12:07;;;;;;;24.58;20.20;;;19.90;99.90;;;;;;5032855;28;20037;-38
2022/08/24 06:14:33;;;;;;;22.55;18.60;;;19.90;99.90;;;;;;5043295;28;20041;-34
2022/08/24 06:17:00;;;;;;;21.42;16.05;;;20.00;99.90;;;;;;5036111;28;20073;-34
2022/08/24 06:19:26;;;;;;;24.85;19.55;;;20.10;99.90;;;;;;5038268;28;20124;-34
2022/08/24 06:21:52;;;;;;;24.08;19.75;;;20.10;99.90;;;;;;5039659;28;20104;-37
2022/08/24 06:27:19;;;;;;;23.05;19.48;;;20.20;99.90;;;;;;5041030;28;20056;-34
2022/08/24 06:27:21;;;;;;;24.73;19.70;;;20.30;99.90;;;;;;5032672;28;20050;-34
2022/08/24 06:29:54;;;;;;;22.25;19.85;;;20.30;99.90;;;;;;5035528;28;20041;-35
2022/08/24 06:32:20;;;;;;;21.70;18.23;;;20.40;99.90;;;;;;5039074;28;20053;-35
2022/08/24 06:34:46;;;;;;;23.77;20.73;;;20.50;99.90;;;;;;5035332;28;20049;-35
2022/08/24 06:37:12;;;;;;;26.95;23.08;;;20.50;99.90;;;;;;5042970;28;20506;-35
2022/08/24 06:39:38;;;;;;;25.38;20.88;;;20.50;99.90;;;;;;5036473;28;20045;-35
2022/08/24 06:42:04;;;;;;;22.95;20.52;;;20.60;99.90;;;;;;5033359;28;20052;-36
2022/08/24 06:44:31;;;;;;;29.20;23.45;;;20.60;99.90;;;;;;5031735;28;20045;-35
2022/08/24 06:46:57;;;;;;;21.48;18.90;;;20.70;99.90;;;;;;5038567;28;20045;-42
2022/08/24 06:49:23;;;;;;;27.63;21.58;;;20.70;99.90;;;;;;5037562;28;20055;-41
2022/08/24 06:51:50;;;;;;;25.67;21.08;;;20.80;99.90;;;;;;5035145;28;20506;-42
2022/08/24 06:54:19;;;;;;;24.35;20.75;;;20.80;99.90;;;;;;5040977;28;20050;-39
2022/08/24 06:56:45;;;;;;;24.08;21.23;;;20.90;99.90;;;;;;5041991;28;20037;-40
2022/08/24 06:59:11;;;;;;;23.88;20.33;;;21.00;99.90;;;;;;5035939;28;20041;-40
2022/08/24 07:01:37;;;;;;;22.10;19.75;;;21.00;99.90;;;;;;5040079;28;20437;-41
2022/08/24 07:04:03;;;;;;;21.02;18.73;;;21.10;99.90;;;;;;5036557;28;20510;-45
2022/08/24 07:06:28;;;;;;;22.90;19.42;;;21.20;99.90;;;;;;5041007;28;20174;-41
2022/08/24 07:08:55;;;;;;;21.55;17.73;;;21.20;99.90;;;;;;5038648;28;20038;-42
2022/08/24 07:11:21;;;;;;;22.98;19.25;;;21.30;99.90;;;;;;5036351;28;20599;-42
2022/08/24 07:13:48;;;;;;;21.70;19.42;;;21.40;99.90;;;;;;5036213;28;20116;-45
2022/08/24 07:16:15;;;;;;;23.27;20.60;;;21.50;99.90;;;;;;5038572;28;20041;-37
2022/08/24 07:18:41;;;;;;;21.13;18.77;;;21.60;99.90;;;;;;5036182;28;20151;-41
2022/08/24 07:21:07;;;;;;;21.55;19.23;;;21.60;99.90;;;;;;5032367;28;20124;-42
2022/08/24 07:23:34;;;;;;;22.88;18.73;;;21.70;99.90;;;;;;5036029;28;20067;-35
2022/08/24 07:26:11;;;;;;;22.02;19.55;;;21.80;99.90;;;;;;5039172;28;20049;-36
2022/08/24 07:28:38;;;;;;;24.60;21.50;;;21.90;99.90;;;;;;5039986;28;20678;-35
2022/08/24 07:31:04;;;;;;;22.48;19.58;;;21.90;99.90;;;;;;5036436;28;20033;-36
2022/08/24 07:33:31;;;;;;;20.67;18.40;;;22.00;99.90;;;;;;5035638;28;20159;-40
2022/08/24 07:35:57;;;;;;;21.70;18.50;;;22.10;99.90;;;;;;5041198;28;20041;-38
2022/08/24 07:38:22;;;;;;;20.55;18.35;;;22.20;99.90;;;;;;5037139;28;20427;-41
2022/08/24 07:40:48;;;;;;;19.75;17.38;;;22.30;99.90;;;;;;5037572;28;20063;-42
2022/08/24 07:43:14;;;;;;;20.13;16.65;;;22.40;99.90;;;;;;5036815;28;20064;-40
2022/08/24 07:45:41;;;;;;;22.02;16.15;;;22.50;99.90;;;;;;5034650;28;20034;-40
2022/08/24 07:48:07;;;;;;;17.65;14.95;;;22.60;99.90;;;;;;5036803;28;20049;-40
2022/08/24 07:50:33;;;;;;;21.75;16.25;;;22.60;99.90;;;;;;5041447;28;20465;-37
2022/08/24 07:53:00;;;;;;;15.43;13.70;;;22.80;99.90;;;;;;5040922;28;20167;-41
2022/08/24 07:55:25;;;;;;;17.95;15.13;;;22.90;99.90;;;;;;5036685;28;20570;-39
2022/08/24 07:57:51;;;;;;;19.17;15.65;;;23.00;99.90;;;;;;5038616;28;20120;-41
2022/08/24 08:00:18;;;;;;;20.52;13.40;;;23.00;99.90;;;;;;5038343;28;20640;-39
2022/08/24 08:02:46;;;;;;;16.15;12.13;;;23.10;99.90;;;;;;5037541;28;20502;-39
2022/08/24 08:05:17;;;;;;;17.23;14.85;;;23.20;99.90;;;;;;5034952;28;20037;-41
2022/08/24 08:07:42;;;;;;;13.07;11.63;;;23.40;99.90;;;;;;5032054;28;20084;-40
2022/08/24 08:10:10;;;;;;;12.70;11.35;;;23.40;99.90;;;;;;5033235;28;20065;-54
2022/08/24 08:12:36;;;;;;;11.63;10.02;;;23.50;99.90;;;;;;5035714;28;20037;-43
2022/08/24 08:15:04;;;;;;;16.17;12.02;;;23.60;99.90;;;;;;5036919;28;20041;-42
2022/08/24 08:17:29;;;;;;;15.43;11.25;;;23.70;99.90;;;;;;5035956;28;20513;-40
2022/08/24 08:19:55;;;;;;;9.95;8.90;;;23.80;99.90;;;;;;5036170;28;20049;-42
2022/08/24 08:25:08;;;;;;;16.40;10.57;;;24.00;99.90;;;;;;5032671;28;20042;-42
2022/08/24 08:27:34;;;;;;;10.23;8.48;;;24.10;99.20;;;;;;5032564;28;20033;-39
2022/08/24 08:30:01;;;;;;;14.38;10.20;;;24.30;98.50;;;;;;5036866;28;20042;-38
2022/08/24 08:32:26;;;;;;;14.77;9.82;;;24.40;98.20;;;;;;5038784;28;20072;-42
2022/08/24 08:34:52;;;;;;;14.40;8.40;;;24.50;97.50;;;;;;5039803;28;20471;-43
2022/08/24 08:37:18;;;;;;;12.88;8.32;;;24.60;97.20;;;;;;5043110;28;20483;-42
2022/08/24 08:39:44;;;;;;;13.38;8.68;;;24.70;96.90;;;;;;5041987;28;20481;-42
2022/08/24 08:42:28;;;;;;;13.00;9.07;;;24.80;96.30;;;;;;5041317;28;20123;-42
2022/08/24 08:44:59;;;;;;;16.85;8.13;;;24.90;95.80;;;;;;5040948;28;20034;-37
2022/08/24 08:47:42;;;;;;;9.00;8.07;;;25.10;95.40;;;;;;5037761;28;20073;-40
2022/08/24 08:50:20;;;;;;;11.80;7.32;;;25.20;94.80;;;;;;5041877;28;20487;-34
2022/08/24 08:53:10;;;;;;;8.18;6.45;;;25.30;94.80;;;;;;5038479;28;20592;-36
2022/08/24 08:55:57;;;;;;;21.95;9.25;;;25.40;94.80;;;;;;5043639;28;20723;-34
2022/08/24 08:58:45;;;;;;;19.98;8.20;;;25.50;93.70;;;;;;5046861;28;20037;-35
2022/08/24 09:01:38;;;;;;;10.18;6.65;;;25.60;93.20;;;;;;5044405;28;20463;-35
2022/08/24 09:04:20;;;;;;;6.90;5.47;;;25.70;92.60;;;;;;5036939;28;20072;-35
2022/08/24 09:06:46;;;;;;;;;;;25.70;91.90;;;;;;5044500;28;20040;-35
2022/08/24 09:09:26;;;;;;;6.32;5.00;;;25.90;92.10;;;;;;5038263;28;19921;-37
2022/08/24 09:12:29;;;;;;;8.02;6.35;;;25.90;91.10;;;;;;5037234;28;20033;-34
2022/08/24 09:15:19;;;;;;;8.95;5.35;;;25.90;90.40;;;;;;5038083;28;20041;-34
2022/08/24 09:18:05;;;;;;;8.50;7.10;;;26.00;90.70;;;;;;5040089;28;20038;-34
2022/08/24 09:20:36;;;;;;;9.02;6.60;;;26.10;90.80;;;;;;5043901;28;20057;-37
2022/08/24 09:23:26;;;;;;;11.32;6.03;;;26.20;89.60;;;;;;5039942;28;20068;-34
2022/08/24 09:26:08;;;;;;;6.70;4.53;;;26.20;89.10;;;;;;5020648;28;20128;-36
2022/08/24 09:28:43;;;;;;;8.35;5.95;;;26.30;88.60;;;;;;5043887;28;20072;-34
2022/08/24 09:31:43;;;;;;;7.40;5.53;;;26.40;88.10;;;;;;5037811;28;20087;-36
2022/08/24 09:34:32;;;;;;;6.38;5.03;;;26.50;87.10;;;;;;5032018;28;20049;-35
2022/08/24 09:37:36;;;;;;;8.75;6.63;;;26.60;87.70;;;;;;5044463;28;20123;-35
2022/08/24 09:40:27;;;;;;;10.30;5.78;;;26.70;85.30;;;;;;5042181;28;20041;-34
2022/08/24 09:43:05;;;;;;;10.55;6.43;;;26.70;85.10;;;;;;5040413;28;20111;-35
2022/08/24 09:45:52;;;;;;;9.55;6.20;;;26.80;85.10;;;;;;5043975;28;20111;-37
2022/08/24 09:48:32;;;;;;;10.48;6.40;;;26.90;84.60;;;;;;5040096;28;20040;-35
2022/08/24 09:51:36;;;;;;;8.82;5.88;;;27.00;83.30;;;;;;5040267;28;20041;-35
2022/08/24 09:54:35;;;;;;;8.13;5.55;;;27.10;83.70;;;;;;4983526;28;20046;-36
2022/08/24 09:57:21;;;;;;;6.75;4.80;;;27.20;82.30;;;;;;4981354;28;20052;-34
2022/08/24 10:00:14;;;;;;;7.90;4.68;;;27.30;81.50;;;;;;5033367;28;20057;-35
2022/08/24 10:03:01;;;;;;;7.18;4.80;;;27.30;81.50;;;;;;5040099;28;20592;-36
2022/08/24 10:05:39;;;;;;;7.20;3.40;;;27.50;80.30;;;;;;5035971;28;20036;-35
2022/08/24 10:08:17;;;;;;;7.85;3.97;;;27.50;81.70;;;;;;5037046;28;20091;-35
2022/08/24 10:11:07;;;;;;;6.68;3.90;;;27.70;80.50;;;;;;5038077;28;20053;-35
2022/08/24 10:13:54;;;;;;;6.03;4.57;;;27.70;79.60;;;;;;5032419;28;20044;-37
2022/08/24 10:16:37;;;;;;;8.88;5.50;;;27.80;79.70;;;;;;5036206;28;20763;-35
2022/08/24 10:19:18;;;;;;;7.38;5.20;;;27.90;78.50;;;;;;5038773;28;20132;-35
2022/08/24 10:21:46;;;;;;;6.13;4.00;;;27.90;77.90;;;;;;5037841;28;20049;-37
2022/08/24 10:24:40;;;;;;;4.35;2.75;;;27.90;78.50;;;;;;5038963;28;20040;-36
2022/08/24 10:27:29;;;;;;;5.63;3.40;;;28.10;76.80;;;;;;5040162;28;20040;-35
2022/08/24 10:30:39;;;;;;;4.95;3.42;;;28.10;77.10;;;;;;5038981;28;20045;-36
2022/08/24 10:33:56;;;;;;;5.07;3.17;;;28.20;76.50;;;;;;5035877;28;20086;-35
2022/08/24 10:36:35;;;;;;;6.07;2.75;;;28.30;75.70;;;;;;5018833;28;20052;-35
2022/08/24 10:39:42;;;;;;;3.60;2.38;;;28.30;76.10;;;;;;5038072;28;20414;-36
2022/08/24 10:45:38;;;;;;;5.32;2.30;;;28.50;75.30;;;;;;5034603;28;20076;-36
2022/08/24 10:48:30;;;;;;;6.60;2.40;;;28.60;74.80;;;;;;5041483;28;20453;-36
2022/08/24 10:51:15;;;;;;;3.00;2.20;;;28.80;74.50;;;;;;5038951;28;20041;-35
2022/08/24 10:53:51;;;;;;;2.92;2.05;;;28.90;74.60;;;;;;5036822;28;20037;-36
2022/08/24 10:56:48;;;;;;;7.40;3.10;;;29.10;72.30;;;;;;5042946;28;20045;-38
2022/08/24 10:59:35;;;;;;;5.13;3.08;;;29.20;70.70;;;;;;5023591;28;20076;-35
2022/08/24 11:02:01;;;;;;;4.95;2.80;;;29.20;70.30;;;;;;5036625;28;20106;-36
2022/08/24 11:04:30;;;;;;;4.57;2.50;;;29.20;71.00;;;;;;5039583;28;20487;-38
2022/08/24 11:07:13;;;;;;;6.57;2.45;;;29.30;70.70;;;;;;5040491;28;20076;-38
2022/08/24 11:09:52;;;;;;;3.45;1.73;;;29.20;68.30;;;;;;5037140;28;20115;-39
2022/08/24 11:12:36;;;;;;;6.05;1.80;;;29.30;69.20;;;;;;5035571;28;20495;-39
2022/08/24 11:15:22;;;;;;;2.85;2.00;;;29.40;69.40;;;;;;5037802;28;20065;-38
2022/08/24 11:18:01;;;;;;;4.10;2.03;;;29.50;68.10;;;;;;5035671;28;20045;-41
2022/08/24 11:20:34;;;;;;;5.03;2.53;;;29.60;68.30;;;;;;5037395;28;20107;-41
2022/08/24 11:23:06;;;;;;;2.38;2.08;;;29.70;69.50;;;;;;5044788;28;20159;-38
2022/08/24 11:25:35;;;;;;;1.90;1.48;;;29.70;64.30;;;;;;5040921;28;20431;-40
2022/08/24 11:28:08;;;;;;;5.70;1.65;;;29.70;66.80;;;;;;5036009;28;20046;-37
2022/08/24 11:30:38;;;;;;;1.73;1.17;;;29.70;64.00;;;;;;5039195;28;20037;-43
2022/08/24 11:33:24;;;;;;;3.67;1.77;;;29.70;64.10;;;;;;5035760;28;20060;-40
2022/08/24 11:35:50;;;;;;;4.93;1.70;;;29.70;64.10;;;;;;5035401;28;20116;-42
2022/08/24 11:38:18;;;;;;;2.20;1.52;;;29.70;65.10;;;;;;5029787;28;20135;-42
2022/08/24 11:40:55;;;;;;;3.28;1.38;;;29.80;64.10;;;;;;5036503;28;20057;-42
2022/08/24 11:43:58;;;;;;;1.55;1.20;;;29.90;65.10;;;;;;5032715;28;20085;-39
2022/08/24 11:46:30;;;;;;;2.67;1.30;;;30.10;65.70;;;;;;5039113;28;20553;-41
2022/08/24 11:49:02;;;;;;;6.78;1.23;;;30.20;63.70;;;;;;5040586;28;20494;-38
2022/08/24 11:51:49;;;;;;;2.95;1.15;;;30.40;61.70;;;;;;5038388;28;20049;-45
2022/08/24 11:54:42;;;;;;;2.47;1.30;;;30.60;60.00;;;;;;5035661;28;21290;-39
2022/08/24 11:57:16;;;;;;;4.82;1.42;;;30.60;57.10;;;;;;5033416;28;20033;-38
2022/08/24 11:59:48;;;;;;;2.92;1.40;;;30.70;57.20;;;;;;5043628;28;20110;-42
2022/08/24 12:02:28;;;;;;;;;;;30.90;56.10;;;;;;5037217;28;20045;-40
2022/08/24 12:05:02;;;;;;;3.10;1.35;;;30.90;51.20;;;;;;5043584;28;20015;-42
2022/08/24 12:07:41;;;;;;;1.50;1.30;;;30.90;55.30;;;;;;5034346;28;20133;-43
2022/08/24 12:10:13;;;;;;;3.53;1.35;;;31.00;58.00;;;;;;5038945;28;20029;-41
2022/08/24 12:12:41;;;;;;;2.30;1.30;;;31.00;57.40;;;;;;5042135;28;20464;-37
2022/08/24 12:15:25;;;;;;;1.80;1.20;;;30.80;56.40;;;;;;5038635;28;20052;-37
2022/08/24 12:18:03;;;;;;;2.13;1.25;;;30.60;57.60;;;;;;5046471;28;20049;-45
2022/08/24 12:20:40;;;;;;;3.85;1.13;;;30.50;57.10;;;;;;5041743;28;20069;-47
2022/08/24 12:23:32;;;;;;;3.00;1.25;;;30.50;58.70;;;;;;5042369;28;20126;-47
2022/08/24 12:26:05;;;;;;;2.67;1.17;;;30.50;58.40;;;;;;5044645;28;20102;-47
2022/08/24 12:28:49;;;;;;;2.38;1.10;;;30.50;60.00;;;;;;5050853;28;20049;-52
2022/08/24 12:31:32;;;;;;;1.40;1.23;;;30.30;61.90;;;;;;5043088;28;20120;-48
2022/08/24 12:34:07;;;;;;;2.17;1.10;;;30.20;63.00;;;;;;5045138;28;20778;-47
2022/08/24 12:37:01;;;;;;;4.35;1.48;;;30.10;65.00;;;;;;5039011;28;20555;-45
2022/08/24 12:39:38;;;;;;;2.25;1.42;;;30.00;67.10;;;;;;5032625;28;20545;-45
2022/08/24 12:42:37;;;;;;;3.08;1.83;;;29.90;68.30;;;;;;5044110;28;20526;-44
2022/08/24 12:45:12;;;;;;;3.05;1.63;;;29.90;69.80;;;;;;5040492;28;20033;-44
2022/08/24 12:47:49;;;;;;;3.88;1.75;;;29.90;69.70;;;;;;5043030;28;20491;-44
2022/08/24 12:50:41;;;;;;;4.03;1.52;;;30.20;68.10;;;;;;5042109;28;20609;-44
2022/08/24 12:53:09;;;;;;;;;;;30.50;62.50;;;;;;5037107;28;20063;-45
2022/08/24 12:56:13;;;;;;;3.13;1.20;;;30.70;58.80;;;;;;5040231;28;20410;-45
2022/08/24 12:58:57;;;;;;;2.67;1.30;;;30.90;57.80;;;;;;5045031;28;20075;-36
2022/08/24 13:01:27;;;;;;;3.80;1.10;;;31.10;56.60;;;;;;5041944;28;20110;-35
2022/08/24 13:04:31;;;;;;;3.42;1.05;;;31.10;56.30;;;;;;5043250;28;20037;-36
2022/08/24 13:07:19;;;;;;;1.30;1.08;;;31.40;54.00;;;;;;5043883;28;20106;-36
2022/08/24 13:10:00;;;;;;;1.48;0.80;;;31.80;49.20;;;;;;5031306;28;20428;-35